Time;durP1;ratioP1;P1;durP2;ratioP2;P2;SDS_P1;SDS_P2;PMS_P1;PMS_P2;Temp;Humidity;BMP_temperature;BMP_pressure;BME280_temperature;BME280_humidity;BME280_pressure;Samples;Min_cycle;Max_cycle;Signal;HPM_P1;HPM_P2
2022/01/01 00:00:08;;;;;;;78.72;31.05;;;;;;;4.48;96.74;97878.75;1734120;83;21447;-75
2022/01/01 00:02:43;;;;;;;73.35;29.00;;;;;;;4.47;96.79;97878.33;1717187;82;21032;-75
2022/01/01 00:05:13;;;;;;;71.87;28.73;;;;;;;4.47;96.96;97873.50;1742908;82;20958;-76
2022/01/01 00:07:40;;;;;;;72.95;31.75;;;;;;;4.46;97.03;97872.66;1756103;81;20982;-76
2022/01/01 00:10:09;;;;;;;65.95;29.48;;;;;;;4.45;96.60;97863.02;1764194;81;21491;-76
2022/01/01 00:12:36;;;;;;;77.15;32.85;;;;;;;4.45;96.97;97880.06;1764090;81;20986;-75
2022/01/01 00:15:04;;;;;;;93.37;38.23;;;;;;;4.42;97.35;97872.66;1764395;81;21032;-76
2022/01/01 00:17:30;;;;;;;94.22;39.88;;;;;;;4.42;96.92;97877.91;1744404;81;20986;-76
2022/01/01 00:19:57;;;;;;;133.52;58.65;;;;;;;4.42;96.88;97872.66;1734120;82;21040;-76
2022/01/01 00:22:23;;;;;;;147.02;64.27;;;;;;;4.41;97.11;97873.13;1734364;83;20982;-76
2022/01/01 00:24:50;;;;;;;157.90;67.37;;;;;;;4.41;97.81;97869.62;1734138;82;20986;-76
2022/01/01 00:27:16;;;;;;;151.53;63.78;;;;;;;4.40;97.33;97872.67;1750713;81;21021;-76
2022/01/01 00:29:42;;;;;;;147.90;63.25;;;;;;;4.41;97.27;97870.93;1743199;81;21061;-76
2022/01/01 00:32:09;;;;;;;150.25;62.83;;;;;;;4.40;97.67;97863.95;1764590;81;20998;-76
2022/01/01 00:34:35;;;;;;;169.02;67.00;;;;;;;4.39;97.30;97855.19;1761067;81;20988;-76
2022/01/01 00:37:04;;;;;;;223.03;90.62;;;;;;;4.40;97.49;97849.52;1734250;82;21018;-75
2022/01/01 00:39:30;;;;;;;212.78;91.12;;;;;;;4.41;97.29;97856.50;1734109;83;21010;-76
2022/01/01 00:41:57;;;;;;;226.20;96.17;;;;;;;4.40;97.44;97847.74;1734151;82;21009;-76
2022/01/01 00:44:24;;;;;;;235.40;99.20;;;;;;;4.41;97.56;97839.44;1734854;81;20973;-76
2022/01/01 00:46:50;;;;;;;259.37;108.45;;;;;;;4.41;97.35;97835.50;1764338;81;21001;-75
2022/01/01 00:49:17;;;;;;;249.10;100.85;;;;;;;4.41;97.22;97839.02;1764594;81;21036;-75
2022/01/01 00:51:43;;;;;;;216.60;88.97;;;;;;;4.42;97.11;97840.75;1764670;81;21386;-75
2022/01/01 00:54:10;;;;;;;211.05;85.07;;;;;;;4.46;96.99;97834.60;1764467;81;20994;-75
2022/01/01 00:56:36;;;;;;;200.60;77.72;;;;;;;4.51;96.97;97836.29;1736748;81;21040;-75
2022/01/01 00:59:02;;;;;;;179.05;72.30;;;;;;;4.55;96.90;97845.89;1734410;82;21073;-75
2022/01/01 01:01:29;;;;;;;155.82;67.78;;;;;;;4.58;96.92;97838.88;1734235;82;21014;-75
2022/01/01 01:03:55;;;;;;;157.30;65.70;;;;;;;4.64;96.99;97848.91;1734461;83;20990;-75
2022/01/01 01:06:22;;;;;;;141.95;62.13;;;;;;;4.67;97.07;97850.17;1761318;81;21512;-76
2022/01/01 01:08:49;;;;;;;137.75;61.28;;;;;;;4.72;97.32;97846.64;1780767;80;20982;-75
2022/01/01 01:11:16;;;;;;;130.43;59.10;;;;;;;4.78;97.07;97848.34;1781067;80;20953;-75
2022/01/01 01:13:45;;;;;;;124.85;58.25;;;;;;;4.84;97.18;97850.91;1768654;80;21083;-75
2022/01/01 01:16:11;;;;;;;125.87;55.73;;;;;;;4.92;97.38;97840.34;1750254;81;21020;-75
2022/01/01 01:18:38;;;;;;;119.28;53.75;;;;;;;4.96;96.96;97834.61;1756369;81;21020;-76
2022/01/01 01:21:06;;;;;;;111.08;52.83;;;;;;;5.01;97.31;97837.63;1777560;80;21048;-75
2022/01/01 01:23:33;;;;;;;114.15;52.70;;;;;;;5.04;97.16;97838.03;1781339;80;21053;-75
2022/01/01 01:26:01;;;;;;;116.22;54.45;;;;;;;5.10;97.17;97829.20;1781025;80;21012;-75
2022/01/01 01:28:27;;;;;;;133.12;57.95;;;;;;;5.11;96.95;97834.91;1780923;80;20974;-75
2022/01/01 01:30:54;;;;;;;129.20;54.75;;;;;;;5.13;96.80;97834.44;1762447;80;20992;-75
2022/01/01 01:33:20;;;;;;;127.00;56.25;;;;;;;5.17;97.20;97819.51;1750160;82;21061;-76
2022/01/01 01:35:47;;;;;;;126.70;56.10;;;;;;;5.23;97.45;97802.38;1750210;82;21000;-75
2022/01/01 01:38:13;;;;;;;144.72;62.78;;;;;;;5.26;97.06;97781.31;1750125;82;21012;-75
2022/01/01 01:40:39;;;;;;;162.97;68.50;;;;;;;5.19;96.28;97815.13;1765039;80;21386;-75
2022/01/01 01:43:10;;;;;;;162.20;69.58;;;;;;;5.15;96.57;97811.20;1781028;80;21020;-75
2022/01/01 01:45:34;;;;;;;165.88;71.20;;;;;;;5.11;96.32;97806.86;1780942;80;21017;-76
2022/01/01 01:48:01;;;;;;;153.75;69.53;;;;;;;5.07;96.54;97806.93;1781086;80;21419;-75
2022/01/01 01:50:27;;;;;;;163.80;70.12;;;;;;;5.03;96.29;97798.22;1768495;80;21024;-75
2022/01/01 01:52:59;;;;;;;152.05;65.12;;;;;;;4.99;96.23;97802.61;1750117;82;20981;-75
2022/01/01 01:55:27;;;;;;;135.63;60.78;;;;;;;4.95;96.29;97800.92;1750132;81;21020;-76
2022/01/01 01:57:55;;;;;;;130.27;59.40;;;;;;;4.93;96.46;97807.93;1749985;82;21004;-75
2022/01/01 02:03:10;;;;;;;118.13;55.92;;;;;;;4.87;96.33;97804.06;1780705;80;21411;-75
2022/01/01 02:05:38;;;;;;;119.72;55.10;;;;;;;4.85;96.57;97800.56;1754748;80;21437;-76
2022/01/01 02:08:06;;;;;;;108.97;52.93;;;;;;;4.82;96.19;97804.55;1771631;80;21069;-75
2022/01/01 02:10:35;;;;;;;102.72;48.87;;;;;;;4.77;96.38;97801.95;1754771;80;20957;-76
2022/01/01 02:13:11;;;;;;;109.90;51.08;;;;;;;4.75;96.58;97801.11;1737006;81;21435;-76
2022/01/01 02:15:59;;;;;;;99.28;47.03;;;;;;;4.74;96.50;97796.28;1735866;82;21115;-76
2022/01/01 02:18:01;;;;;;;98.15;46.13;;;;;;;4.72;96.49;97796.75;1733746;83;21017;-76
2022/01/01 02:20:28;;;;;;;89.28;43.65;;;;;;;4.71;96.50;97791.08;1749780;81;21009;-76
2022/01/01 02:22:58;;;;;;;94.13;46.28;;;;;;;4.69;96.53;97773.14;1769739;81;21403;-76
2022/01/01 02:25:23;;;;;;;84.35;40.73;;;;;;;4.67;96.37;97770.98;1769294;81;21505;-76
2022/01/01 02:27:49;;;;;;;90.53;44.35;;;;;;;4.66;96.23;97777.56;1769563;81;21403;-76
2022/01/01 02:30:16;;;;;;;86.45;42.60;;;;;;;4.64;96.36;97768.38;1740526;81;21009;-76
2022/01/01 02:32:44;;;;;;;91.55;45.60;;;;;;;4.64;96.26;97767.53;1739188;82;21064;-76
2022/01/01 02:35:14;;;;;;;92.57;44.75;;;;;;;4.61;96.42;97764.03;1739503;82;21013;-77
2022/01/01 02:37:42;;;;;;;90.25;41.95;;;;;;;4.60;96.25;97758.36;1739467;82;21475;-76
2022/01/01 02:40:12;;;;;;;79.07;39.42;;;;;;;4.57;96.34;97757.06;1766578;81;21404;-76
2022/01/01 02:42:42;;;;;;;74.10;38.13;;;;;;;4.57;96.31;97754.44;1769792;81;21001;-76
2022/01/01 02:45:11;;;;;;;73.90;38.45;;;;;;;4.55;96.23;97747.47;1769724;80;21395;-76
2022/01/01 02:47:38;;;;;;;69.22;35.35;;;;;;;4.55;96.35;97748.78;1769774;81;20998;-76
2022/01/01 02:50:06;;;;;;;71.25;36.35;;;;;;;4.54;96.23;97750.98;1743520;81;21405;-76
2022/01/01 02:52:33;;;;;;;64.87;33.28;;;;;;;4.52;96.56;97750.98;1739127;82;21478;-76
2022/01/01 02:54:59;;;;;;;70.30;35.15;;;;;;;4.53;96.45;97745.31;1739122;82;21001;-77
2022/01/01 02:57:26;;;;;;;71.28;36.35;;;;;;;4.53;96.49;97747.47;1739360;82;21006;-77
2022/01/01 02:59:52;;;;;;;72.90;36.73;;;;;;;4.53;96.52;97751.87;1762373;81;21438;-76
2022/01/01 03:02:19;;;;;;;70.10;35.30;;;;;;;4.52;96.32;97750.98;1769704;81;21045;-76
2022/01/01 03:04:45;;;;;;;68.22;35.60;;;;;;;4.53;96.49;97753.19;1769755;81;21004;-76
2022/01/01 03:07:12;;;;;;;75.22;34.63;;;;;;;4.52;96.46;97765.89;1759667;81;21479;-76
2022/01/01 03:09:38;;;;;;;79.47;35.17;;;;;;;4.50;96.48;97755.39;1711911;83;20994;-76
2022/01/01 03:12:09;;;;;;;66.45;32.25;;;;;;;4.51;96.67;97758.88;1701727;84;21455;-76
2022/01/01 03:14:36;;;;;;;73.65;34.85;;;;;;;4.47;97.32;97749.73;1701391;84;21057;-76
2022/01/01 03:17:05;;;;;;;69.60;33.45;;;;;;;4.47;96.66;97753.67;1709033;83;21057;-76
2022/01/01 03:19:32;;;;;;;65.20;31.45;;;;;;;4.47;96.82;97754.09;1730918;82;21014;-77
2022/01/01 03:22:00;;;;;;;70.32;33.48;;;;;;;4.48;96.73;97755.83;1730730;82;21003;-76
2022/01/01 03:24:28;;;;;;;68.00;33.05;;;;;;;4.53;96.41;97753.19;1730856;83;20974;-76
2022/01/01 03:26:54;;;;;;;68.97;32.70;;;;;;;4.56;96.45;97757.95;1725567;82;20989;-76
2022/01/01 03:29:21;;;;;;;62.83;32.00;;;;;;;4.58;96.31;97757.52;1701735;83;20977;-76
2022/01/01 03:31:47;;;;;;;62.70;30.82;;;;;;;4.58;96.84;97747.02;1701833;84;21044;-76
2022/01/01 03:34:14;;;;;;;60.65;30.15;;;;;;;4.65;96.72;97753.52;1701553;84;21005;-76
2022/01/01 03:36:40;;;;;;;52.78;26.55;;;;;;;4.69;96.77;97747.35;1723922;83;21029;-76
2022/01/01 03:39:08;;;;;;;57.20;28.27;;;;;;;4.74;96.72;97756.91;1730932;82;20934;-76
2022/01/01 03:41:34;;;;;;;55.20;26.80;;;;;;;4.78;96.81;97746.38;1730809;83;21006;-76
2022/01/01 03:44:00;;;;;;;58.95;28.47;;;;;;;4.86;97.20;97756.38;1730945;82;21001;-76
2022/01/01 03:46:27;;;;;;;54.40;27.90;;;;;;;4.94;97.13;97749.27;1711668;83;21387;-76
2022/01/01 03:48:53;;;;;;;55.85;29.37;;;;;;;5.05;97.35;97743.90;1701796;84;20966;-74
2022/01/01 03:51:20;;;;;;;54.40;28.25;;;;;;;5.15;97.10;97745.98;1701904;84;21010;-74
2022/01/01 03:53:46;;;;;;;54.53;28.42;;;;;;;5.19;96.83;97739.78;1701898;83;20982;-74
2022/01/01 03:56:14;;;;;;;55.25;29.25;;;;;;;5.23;95.25;97738.86;1717495;83;21411;-74
2022/01/01 03:58:42;;;;;;;54.67;29.80;;;;;;;5.24;96.20;97738.43;1730954;83;21439;-74
2022/01/01 04:01:08;;;;;;;53.63;28.62;;;;;;;5.26;95.76;97732.70;1730850;82;21049;-74
2022/01/01 04:03:36;;;;;;;60.85;31.25;;;;;;;5.28;96.09;97740.98;1730816;83;20990;-74
2022/01/01 04:06:03;;;;;;;58.05;28.77;;;;;;;5.31;96.14;97728.72;1716916;83;21776;-74
2022/01/01 04:08:31;;;;;;;58.98;30.80;;;;;;;5.26;95.78;97732.70;1724826;82;21068;-74
2022/01/01 04:10:58;;;;;;;58.20;31.82;;;;;;;5.25;96.05;97731.85;1739174;82;21013;-75
2022/01/01 04:13:24;;;;;;;60.88;30.20;;;;;;;5.26;96.05;97739.27;1739163;82;21098;-76
2022/01/01 04:15:51;;;;;;;57.15;31.27;;;;;;;5.22;95.81;97734.50;1749999;81;21001;-76
2022/01/01 04:18:27;;;;;;;60.00;31.30;;;;;;;5.18;95.83;97741.99;1769514;80;21033;-75
2022/01/01 04:20:47;;;;;;;61.85;32.35;;;;;;;5.15;95.79;97733.70;1768410;81;21053;-75
2022/01/01 04:23:13;;;;;;;68.87;34.15;;;;;;;5.15;96.04;97729.77;1769631;81;20974;-75
2022/01/01 04:25:40;;;;;;;62.17;32.83;;;;;;;5.13;95.95;97726.30;1761555;81;21005;-75
2022/01/01 04:28:06;;;;;;;66.97;35.88;;;;;;;5.12;95.88;97736.36;1739504;82;21005;-75
2022/01/01 04:30:33;;;;;;;68.35;37.28;;;;;;;5.08;95.70;97729.86;1739428;82;21048;-75
2022/01/01 04:33:00;;;;;;;69.58;38.60;;;;;;;5.05;95.80;97731.20;1739462;82;21376;-75
2022/01/01 04:35:27;;;;;;;69.20;37.67;;;;;;;5.01;95.81;97733.88;1744241;81;21021;-75
2022/01/01 04:37:54;;;;;;;77.80;39.33;;;;;;;4.99;96.10;97732.16;1769777;80;20986;-75
2022/01/01 04:40:20;;;;;;;76.75;40.17;;;;;;;4.98;96.10;97725.17;1769754;80;21405;-76
2022/01/01 04:42:47;;;;;;;72.55;38.55;;;;;;;4.95;95.86;97729.13;1769764;80;20978;-75
2022/01/01 04:45:14;;;;;;;67.20;36.03;;;;;;;4.93;95.82;97727.83;1746615;81;21028;-75
2022/01/01 04:47:40;;;;;;;72.45;36.90;;;;;;;4.89;95.78;97734.00;1739440;82;21036;-75
2022/01/01 04:50:07;;;;;;;76.35;39.92;;;;;;;4.88;96.06;97735.77;1739369;82;21399;-75
2022/01/01 04:52:34;;;;;;;84.62;42.27;;;;;;;4.86;96.03;97736.22;1739251;82;21014;-75
2022/01/01 04:55:01;;;;;;;89.13;45.15;;;;;;;4.85;96.02;97744.98;1759218;81;21009;-76
2022/01/01 04:57:30;;;;;;;89.40;45.28;;;;;;;4.85;96.11;97734.91;1769744;81;21041;-76
2022/01/01 04:59:57;;;;;;;87.40;45.35;;;;;;;4.84;96.23;97733.18;1769666;81;20998;-75
2022/01/01 05:02:29;;;;;;;95.05;48.48;;;;;;;4.83;96.26;97739.33;1769773;81;21044;-75
2022/01/01 05:04:54;;;;;;;102.53;51.42;;;;;;;4.82;96.09;97735.81;1751297;81;21482;-75
2022/01/01 05:07:22;;;;;;;105.52;50.88;;;;;;;4.78;96.15;97739.39;1738702;82;21029;-76
2022/01/01 05:09:48;;;;;;;91.45;47.80;;;;;;;4.75;96.10;97738.98;1734722;82;21009;-76
2022/01/01 05:12:15;;;;;;;93.25;48.40;;;;;;;4.76;96.09;97745.08;1734839;83;21470;-76
2022/01/01 05:14:41;;;;;;;95.67;47.08;;;;;;;4.75;96.20;97744.66;1747984;81;21025;-76
2022/01/01 05:17:08;;;;;;;93.50;47.10;;;;;;;4.74;96.46;97744.23;1764720;81;21009;-75
2022/01/01 05:19:34;;;;;;;96.37;48.28;;;;;;;4.75;96.49;97751.22;1764536;81;21009;-75
2022/01/01 05:22:01;;;;;;;94.62;47.83;;;;;;;4.74;96.44;97748.17;1763687;81;21045;-75
2022/01/01 05:24:27;;;;;;;101.02;50.10;;;;;;;4.76;96.44;97755.58;1734593;82;21435;-75
2022/01/01 05:26:54;;;;;;;101.05;51.15;;;;;;;4.73;97.00;97752.97;1734534;83;20986;-75
2022/01/01 05:29:20;;;;;;;100.47;51.33;;;;;;;4.72;96.75;97757.38;1734524;83;21024;-76
2022/01/01 05:31:47;;;;;;;108.45;51.70;;;;;;;4.73;96.94;97765.67;1734419;83;21411;-75
2022/01/01 05:34:13;;;;;;;98.00;50.90;;;;;;;4.74;96.66;97762.16;1762391;81;21477;-76
2022/01/01 05:36:40;;;;;;;99.28;48.45;;;;;;;4.75;96.87;97766.98;1764668;81;20982;-76
2022/01/01 05:39:08;;;;;;;96.55;47.55;;;;;;;4.75;96.76;97763.03;1764661;81;21026;-75
2022/01/01 05:41:35;;;;;;;86.02;45.55;;;;;;;4.77;96.94;97768.28;1764389;81;21064;-76
2022/01/01 05:44:02;;;;;;;104.78;49.85;;;;;;;4.76;96.84;97767.39;1739231;81;21527;-76
2022/01/01 05:46:30;;;;;;;98.03;49.90;;;;;;;4.76;96.68;97770.02;1734440;82;21029;-75
2022/01/01 05:48:57;;;;;;;98.60;47.90;;;;;;;4.75;96.68;97772.22;1734193;82;21025;-75
2022/01/01 05:51:23;;;;;;;97.25;47.95;;;;;;;4.75;96.64;97769.59;1747421;81;21418;-75
2022/01/01 05:53:50;;;;;;;107.27;52.40;;;;;;;4.80;96.48;97770.85;1764622;81;21061;-75
2022/01/01 05:56:16;;;;;;;105.00;52.33;;;;;;;4.82;96.77;97770.41;1764474;81;21090;-76
2022/01/01 05:58:45;;;;;;;103.60;49.45;;;;;;;4.85;96.62;97768.63;1764534;81;21337;-76
2022/01/01 06:01:12;;;;;;;93.75;46.45;;;;;;;4.87;96.79;97770.77;1754423;80;21077;-76
2022/01/01 06:03:38;;;;;;;91.80;46.77;;;;;;;4.93;96.75;97772.91;1734351;82;21487;-76
2022/01/01 06:06:05;;;;;;;90.28;46.83;;;;;;;4.98;97.17;97780.33;1734365;83;21038;-75
2022/01/01 06:08:31;;;;;;;88.90;46.70;;;;;;;5.05;97.07;97781.98;1734575;82;21044;-76
2022/01/01 06:10:58;;;;;;;92.85;46.42;;;;;;;5.08;96.79;97787.22;1736396;81;21041;-76
2022/01/01 06:13:24;;;;;;;104.72;50.83;;;;;;;5.15;97.31;97787.56;1734254;83;21018;-76
2022/01/01 06:15:51;;;;;;;108.80;52.00;;;;;;;5.21;97.31;97787.06;1734005;82;21040;-76
2022/01/01 06:18:17;;;;;;;104.35;48.70;;;;;;;5.24;96.96;97789.20;1734281;82;21400;-76
2022/01/01 06:20:44;;;;;;;99.42;48.28;;;;;;;5.25;96.69;97792.28;1734324;82;21017;-76
2022/01/01 06:23:11;;;;;;;102.67;47.70;;;;;;;5.29;97.02;97793.96;1763778;81;21037;-76
2022/01/01 06:25:37;;;;;;;102.92;48.60;;;;;;;5.32;96.72;97798.34;1764454;81;21009;-75
2022/01/01 06:28:04;;;;;;;99.25;46.83;;;;;;;5.35;96.96;97798.75;1764723;81;20982;-75
2022/01/01 06:30:35;;;;;;;99.15;48.23;;;;;;;5.34;96.51;97802.23;1764308;81;21434;-75
2022/01/01 06:33:11;;;;;;;96.60;49.03;;;;;;;5.37;96.80;97799.59;1736827;81;21479;-75
2022/01/01 06:35:43;;;;;;;99.65;49.93;;;;;;;5.36;96.80;97802.65;1734367;83;21017;-75
2022/01/01 06:38:11;;;;;;;100.05;49.25;;;;;;;5.38;97.00;97806.58;1734243;83;21033;-75
2022/01/01 06:40:40;;;;;;;104.58;49.42;;;;;;;5.39;96.92;97814.88;1734202;82;21446;-75
2022/01/01 06:43:09;;;;;;;101.35;50.83;;;;;;;5.41;96.90;97815.75;1762483;81;21097;-75
2022/01/01 06:45:36;;;;;;;109.32;53.85;;;;;;;5.38;96.64;97817.09;1764540;80;21502;-75
2022/01/01 06:48:04;;;;;;;115.20;54.05;;;;;;;5.36;96.42;97811.00;1764628;80;20990;-75
2022/01/01 06:50:31;;;;;;;114.35;56.08;;;;;;;5.31;96.38;97820.23;1764514;81;21087;-75
2022/01/01 06:52:58;;;;;;;120.92;58.48;;;;;;;5.30;96.34;97832.95;1738119;81;21025;-75
2022/01/01 06:55:25;;;;;;;112.40;55.95;;;;;;;5.27;96.29;97834.28;1734236;82;21459;-75
2022/01/01 06:57:51;;;;;;;117.82;58.05;;;;;;;5.22;96.17;97828.20;1734109;82;21001;-77
2022/01/01 07:00:18;;;;;;;112.97;54.63;;;;;;;5.20;96.31;97829.99;1747717;81;21011;-76
2022/01/01 07:02:47;;;;;;;111.37;54.48;;;;;;;5.19;96.24;97829.11;1764509;81;21413;-76
2022/01/01 07:05:15;;;;;;;114.15;56.08;;;;;;;5.17;96.28;97826.95;1764371;81;21033;-76
2022/01/01 07:07:42;;;;;;;110.48;54.80;;;;;;;5.19;96.54;97837.45;1764630;81;21000;-76
2022/01/01 07:10:12;;;;;;;114.15;57.62;;;;;;;5.20;96.48;97833.50;1753320;81;21021;-76
2022/01/01 07:12:40;;;;;;;111.32;56.63;;;;;;;5.20;96.39;97837.88;1734176;82;21046;-75
2022/01/01 07:15:08;;;;;;;122.82;58.00;;;;;;;5.18;96.15;97843.61;1734228;82;21029;-75
2022/01/01 07:17:35;;;;;;;121.92;57.62;;;;;;;5.16;96.30;97848.87;1734230;83;20977;-75
2022/01/01 07:20:02;;;;;;;113.68;54.80;;;;;;;5.18;96.41;97852.80;1743310;81;20997;-75
2022/01/01 07:22:28;;;;;;;106.92;55.00;;;;;;;5.19;96.32;97860.64;1764395;81;21000;-75
2022/01/01 07:24:55;;;;;;;116.90;56.42;;;;;;;5.21;96.43;97855.38;1764341;81;20989;-75
2022/01/01 07:27:21;;;;;;;113.95;58.48;;;;;;;5.21;96.38;97859.31;1764471;81;20990;-75
2022/01/01 07:29:48;;;;;;;116.67;57.78;;;;;;;5.22;96.25;97862.36;1736974;81;21002;-76
2022/01/01 07:32:14;;;;;;;115.32;57.98;;;;;;;5.23;96.30;97864.98;1734369;82;20989;-76
2022/01/01 07:34:41;;;;;;;110.03;55.35;;;;;;;5.19;96.35;97861.95;1734212;82;21045;-76
2022/01/01 07:37:07;;;;;;;116.80;56.25;;;;;;;5.19;96.23;97877.72;1734395;83;20974;-76
2022/01/01 07:39:34;;;;;;;113.52;57.13;;;;;;;5.20;96.30;97874.23;1764985;81;21368;-78
2022/01/01 07:42:00;;;;;;;117.20;56.35;;;;;;;5.22;96.33;97864.99;1764510;81;21014;-76
2022/01/01 07:44:26;;;;;;;117.47;56.18;;;;;;;5.24;96.34;97867.18;1764572;81;21013;-75
2022/01/01 07:46:55;;;;;;;118.90;55.90;;;;;;;5.24;96.25;97878.54;1764384;81;21001;-75
2022/01/01 07:49:21;;;;;;;111.20;54.88;;;;;;;5.23;96.26;97878.58;1743819;81;21013;-76
2022/01/01 07:51:48;;;;;;;114.92;54.80;;;;;;;5.23;96.26;97881.21;1734247;82;20994;-77
2022/01/01 07:54:14;;;;;;;107.22;52.58;;;;;;;5.22;96.59;97872.88;1734209;82;21018;-77
2022/01/01 07:56:41;;;;;;;117.53;57.67;;;;;;;5.23;96.35;97874.64;1734100;82;21021;-77
2022/01/01 07:59:07;;;;;;;113.17;55.05;;;;;;;5.25;96.13;97874.17;1750199;81;21377;-77
2022/01/01 08:01:33;;;;;;;108.92;56.00;;;;;;;5.24;96.12;97879.00;1764321;81;21032;-75
2022/01/01 08:04:02;;;;;;;118.30;58.95;;;;;;;5.22;96.59;97876.81;1764188;81;21041;-77
2022/01/01 08:06:31;;;;;;;109.22;57.67;;;;;;;5.23;96.39;97877.27;1764511;81;20998;-75
2022/01/01 08:08:58;;;;;;;104.00;50.10;;;;;;;5.24;96.31;97887.73;1752527;81;21024;-76
2022/01/01 08:11:25;;;;;;;96.08;48.13;;;;;;;5.27;96.31;97889.03;1739216;82;21411;-76
2022/01/01 08:13:53;;;;;;;97.60;48.10;;;;;;;5.33;96.55;97892.48;1739347;82;21041;-76
2022/01/01 08:16:20;;;;;;;97.27;48.65;;;;;;;5.38;96.45;97881.05;1739072;82;21053;-76
2022/01/01 08:18:46;;;;;;;84.25;43.90;;;;;;;5.49;96.43;97882.69;1747954;81;21075;-76
2022/01/01 08:21:13;;;;;;;79.97;44.10;;;;;;;5.57;96.33;97888.74;1767788;81;21029;-76
2022/01/01 08:23:40;;;;;;;82.67;44.40;;;;;;;5.64;96.06;97884.25;1769478;81;21021;-75
2022/01/01 08:26:06;;;;;;;88.10;48.20;;;;;;;5.75;96.14;97879.77;1769723;80;21012;-77
2022/01/01 08:28:32;;;;;;;103.27;48.45;;;;;;;5.81;96.02;97888.89;1764982;81;21036;-75
2022/01/01 08:30:59;;;;;;;100.35;52.25;;;;;;;5.90;94.44;97894.47;1769260;81;20970;-76
2022/01/01 08:33:25;;;;;;;95.90;51.28;;;;;;;5.99;95.18;97897.88;1769627;80;21037;-76
2022/01/01 08:35:52;;;;;;;97.12;52.90;;;;;;;6.03;95.53;97903.11;1768697;81;20993;-76
2022/01/01 08:38:18;;;;;;;99.67;53.45;;;;;;;6.07;95.26;97888.17;1765021;81;21029;-76
2022/01/01 08:40:45;;;;;;;100.38;53.10;;;;;;;6.10;94.63;97886.80;1739193;82;21013;-76
2022/01/01 08:43:11;;;;;;;94.17;51.63;;;;;;;6.11;94.40;97885.94;1739110;82;21073;-76
2022/01/01 08:45:39;;;;;;;100.42;55.10;;;;;;;6.16;94.65;97893.31;1739406;82;21407;-76
2022/01/01 08:48:07;;;;;;;96.47;53.48;;;;;;;6.26;94.51;97904.58;1740423;81;21009;-76
2022/01/01 08:50:34;;;;;;;96.72;53.85;;;;;;;6.31;94.16;97908.02;1769458;81;20989;-76
2022/01/01 08:53:01;;;;;;;97.20;53.78;;;;;;;6.41;94.73;97909.20;1769727;81;21045;-76
2022/01/01 08:55:29;;;;;;;101.90;52.90;;;;;;;6.50;95.11;97914.34;1769564;81;21458;-75
2022/01/01 08:57:55;;;;;;;99.28;53.45;;;;;;;6.59;95.15;97913.33;1769498;81;21068;-76
2022/01/01 09:00:22;;;;;;;106.75;54.50;;;;;;;6.67;95.05;97908.83;1740172;81;21043;-76
2022/01/01 09:02:49;;;;;;;98.27;53.23;;;;;;;6.71;94.97;97912.27;1739265;82;21032;-76
2022/01/01 09:05:15;;;;;;;96.97;50.33;;;;;;;6.73;94.96;97913.14;1739043;82;21065;-76
2022/01/01 09:07:42;;;;;;;96.20;51.00;;;;;;;6.81;95.09;97909.91;1755608;81;21407;-76
2022/01/01 09:10:09;;;;;;;89.67;49.30;;;;;;;6.89;94.91;97916.84;1769426;81;21037;-76
2022/01/01 09:12:35;;;;;;;84.17;48.40;;;;;;;6.93;94.58;97915.44;1769612;80;21648;-76
2022/01/01 09:15:03;;;;;;;80.75;43.80;;;;;;;7.02;94.94;97922.78;1769686;81;21036;-76
2022/01/01 09:17:29;;;;;;;73.15;40.08;;;;;;;7.13;94.85;97919.51;1756078;81;21391;-76
2022/01/01 09:19:55;;;;;;;73.45;42.05;;;;;;;7.21;94.69;97912.35;1745362;81;21025;-76
2022/01/01 09:22:22;;;;;;;67.60;37.10;;;;;;;7.31;94.85;97911.73;1769674;80;21005;-76
2022/01/01 09:24:48;;;;;;;72.90;41.02;;;;;;;7.39;94.51;97907.63;1769639;81;20982;-75
2022/01/01 09:27:15;;;;;;;62.27;34.92;;;;;;;7.44;94.47;97922.95;1759629;81;20981;-76
2022/01/01 09:29:41;;;;;;;52.67;29.60;;;;;;;7.48;94.16;97929.03;1739281;82;21450;-76
2022/01/01 09:32:08;;;;;;;55.20;30.12;;;;;;;7.54;94.13;97922.31;1730272;83;21044;-76
2022/01/01 09:34:34;;;;;;;60.40;35.58;;;;;;;7.61;94.19;97920.44;1727216;83;21023;-76
2022/01/01 09:37:00;;;;;;;50.80;30.60;;;;;;;7.69;94.18;97925.56;1739285;81;21041;-76
2022/01/01 09:39:27;;;;;;;48.52;29.72;;;;;;;7.73;94.25;97926.78;1739220;82;21418;-75
2022/01/01 09:41:54;;;;;;;48.63;29.98;;;;;;;7.79;94.24;97921.84;1739324;82;21037;-75
2022/01/01 09:44:20;;;;;;;64.32;36.50;;;;;;;7.87;94.38;97923.02;1739385;82;21034;-76
2022/01/01 09:46:50;;;;;;;58.40;30.72;;;;;;;7.93;94.36;97917.61;1742929;81;21115;-77
2022/01/01 09:49:18;;;;;;;31.85;19.10;;;;;;;7.95;94.75;97907.02;1769775;80;20997;-77
2022/01/01 09:51:45;;;;;;;19.85;11.97;;;;;;;8.03;94.66;97913.02;1769787;81;21453;-77
2022/01/01 09:54:14;;;;;;;22.77;14.73;;;;;;;8.21;93.97;97911.77;1769631;80;21021;-76
2022/01/01 09:56:40;;;;;;;19.17;11.40;;;;;;;8.36;93.91;97913.22;1768144;81;21029;-76
2022/01/01 09:59:07;;;;;;;17.35;9.55;;;;;;;8.51;94.08;97908.02;1739338;82;21410;-76
2022/01/01 10:01:34;;;;;;;10.40;6.45;;;;;;;8.70;93.23;97902.36;1739153;82;21037;-76
2022/01/01 10:04:01;;;;;;;8.10;5.60;;;;;;;8.85;93.42;97905.10;1739430;82;21001;-77
2022/01/01 10:06:29;;;;;;;8.85;5.20;;;;;;;9.07;89.80;97900.16;1739382;82;20994;-76
2022/01/01 10:09:06;;;;;;;7.60;5.40;;;;;;;9.31;88.99;97914.11;1768669;81;20982;-76
2022/01/01 10:11:35;;;;;;;6.78;4.17;;;;;;;9.53;89.12;97906.47;1769472;81;21466;-76
2022/01/01 10:14:06;;;;;;;11.60;6.28;;;;;;;9.79;88.48;97901.39;1769755;80;20977;-76
2022/01/01 10:16:44;;;;;;;6.33;5.00;;;;;;;10.00;87.62;97908.71;1769800;81;21411;-76
2022/01/01 10:19:10;;;;;;;8.93;5.20;;;;;;;10.15;86.38;97914.03;1755773;81;21001;-76
2022/01/01 10:21:41;;;;;;;8.03;4.65;;;;;;;10.24;84.68;97912.00;1748158;81;21054;-76
2022/01/01 10:24:14;;;;;;;8.83;5.58;;;;;;;10.32;84.69;97910.45;1769570;81;21013;-75
2022/01/01 10:29:29;;;;;;;5.80;3.80;;;;;;;10.55;82.34;97904.03;1739315;82;20985;-75
2022/01/01 10:32:10;;;;;;;6.85;4.22;;;;;;;10.60;80.63;97902.58;1739406;81;21049;-75
2022/01/01 10:34:46;;;;;;;8.53;4.87;;;;;;;10.76;80.61;97918.00;1739309;82;21061;-75
2022/01/01 10:37:15;;;;;;;5.37;3.95;;;;;;;10.89;81.26;97916.70;1745999;81;20986;-75
2022/01/01 10:39:52;;;;;;;10.00;6.00;;;;;;;11.02;80.19;97916.28;1769690;81;21037;-77
2022/01/01 10:42:19;;;;;;;5.17;3.70;;;;;;;11.07;77.82;97913.90;1769537;81;21056;-76
2022/01/01 10:44:49;;;;;;;5.85;4.05;;;;;;;11.06;78.85;97914.83;1769649;81;20993;-75
2022/01/01 10:47:28;;;;;;;5.80;3.92;;;;;;;11.00;78.98;97918.98;1747306;81;21057;-75
2022/01/01 10:50:04;;;;;;;7.50;4.28;;;;;;;10.98;79.39;97906.23;1768917;81;21033;-75
2022/01/01 10:52:30;;;;;;;4.72;3.33;;;;;;;11.00;79.80;97920.30;1767780;81;21016;-75
2022/01/01 10:55:00;;;;;;;6.05;3.25;;;;;;;11.01;77.40;97927.81;1769702;81;21032;-75
2022/01/01 10:57:41;;;;;;;4.53;3.27;;;;;;;10.97;78.14;97919.09;1739334;81;21022;-75
2022/01/01 11:00:21;;;;;;;4.30;3.42;;;;;;;10.94;78.17;97920.06;1739361;82;21021;-75
2022/01/01 11:02:59;;;;;;;3.80;2.67;;;;;;;10.94;77.99;97920.06;1737091;83;21017;-76
2022/01/01 11:05:40;;;;;;;4.72;3.20;;;;;;;10.89;75.75;97918.47;1740588;81;21056;-75
2022/01/01 11:08:10;;;;;;;3.25;2.55;;;;;;;10.85;76.72;97912.41;1767240;81;20998;-76
2022/01/01 11:10:38;;;;;;;3.30;2.20;;;;;;;10.79;76.47;97914.78;1768482;80;21041;-75
2022/01/01 11:13:07;;;;;;;4.25;2.20;;;;;;;10.69;76.14;97922.17;1769646;81;21002;-75
2022/01/01 11:15:34;;;;;;;2.95;1.98;;;;;;;10.66;77.56;97918.28;1764686;80;21056;-75
2022/01/01 11:18:06;;;;;;;5.58;4.53;;;;;;;10.63;78.20;97925.47;1739272;82;21041;-75
2022/01/01 11:20:35;;;;;;;3.42;2.35;;;;;;;10.60;78.26;97913.18;1738430;82;20982;-75
2022/01/01 11:23:06;;;;;;;4.92;2.58;;;;;;;10.46;76.25;97935.25;1739285;82;21009;-75
2022/01/01 11:25:36;;;;;;;3.95;2.22;;;;;;;10.47;77.21;97920.64;1764828;81;20954;-75
2022/01/01 11:28:07;;;;;;;3.17;2.20;;;;;;;10.43;77.77;97921.61;1769734;81;21021;-75
2022/01/01 11:30:38;;;;;;;3.50;2.60;;;;;;;10.38;78.33;97915.59;1769574;80;21048;-75